Date,TemperatureHighF,TemperatureAvgF,TemperatureLowF,DewpointHighF,DewpointAvgF,DewpointLowF,HumidityHigh,HumidityAvg,HumidityLow,PressureMaxIn,PressureMinIn,WindSpeedMaxMPH,WindSpeedAvgMPH,GustSpeedMaxMPH,PrecipitationSumIn
2013-1-9,57.0,53.1,50.0,49.0,47.9,42.0,89,82,73,0.00,40.00,9,4,0,0.00
2013-1-10,51.0,45.9,41.0,40.0,34.5,28.0,77,64,52,0.00,40.00,15,4,0,0.00
2013-1-11,53.0,46.4,40.0,41.0,33.3,28.0,79,61,44,0.00,40.00,8,4,0,0.00
2013-1-12,52.0,44.6,38.0,35.0,32.3,27.0,78,62,40,0.00,40.00,6,4,0,0.00
2013-1-13,51.0,43.1,35.0,34.0,24.8,20.0,70,49,33,0.00,40.00,9,4,0,0.00
2013-1-14,53.0,42.9,34.0,26.0,21.2,15.0,59,42,30,0.00,40.00,8,5,0,0.00
2013-1-15,54.0,43.3,35.0,37.0,25.3,16.0,79,50,30,0.00,40.00,5,3,0,0.00
2013-1-16,58.0,47.7,38.0,41.0,34.7,30.0,76,60,38,0.00,40.00,5,4,0,0.00
2013-1-17,66.0,51.1,40.0,47.0,33.6,28.0,72,52,31,0.00,40.00,6,4,0,0.00
2013-1-20,75.0,54.9,44.0,41.0,31.1,25.0,56,41,19,0.00,40.00,7,4,0,0.00
2013-1-21,72.0,60.0,49.0,39.0,27.3,16.0,43,30,15,0.00,40.00,11,4,0,0.00
2013-1-22,70.0,58.4,50.0,40.0,28.4,21.0,41,32,16,0.00,40.00,8,4,0,0.00
2013-1-23,72.0,57.0,53.0,45.0,34.9,20.0,73,47,16,0.00,40.00,13,4,0,0.00
2013-1-24,64.0,55.6,51.0,58.0,52.0,45.0,93,87,64,0.00,40.00,9,3,0,0.00
2013-1-25,66.0,59.2,55.0,55.0,53.1,50.0,92,80,61,0.00,40.00,8,4,0,0.00
2013-1-26,58.0,53.7,51.0,53.0,48.7,44.0,90,82,72,0.00,40.00,11,4,0,0.00
2013-1-27,54.0,49.3,44.0,45.0,40.0,36.0,81,70,54,0.00,40.00,13,4,0,0.00
2013-1-28,54.0,47.8,42.0,46.0,38.3,33.0,83,69,51,0.00,40.00,8,4,0,0.00
2013-1-29,56.0,48.4,43.0,46.0,39.8,36.0,85,72,51,0.00,40.00,11,4,0,0.00
2013-1-30,66.0,51.1,44.0,46.0,39.6,36.0,78,65,43,0.00,40.00,7,4,0,0.00
2013-1-31,60.0,52.8,45.0,49.0,42.8,38.0,84,68,52,0.00,40.00,6,3,0,0.00
2013-2-1,61.0,50.0,45.0,48.0,44.1,39.0,91,80,60,0.00,40.00,7,3,0,0.00
2013-2-2,57.0,52.4,48.0,50.0,47.9,46.0,92,85,69,0.00,40.00,6,3,0,0.00
2013-2-3,56.0,51.8,48.0,50.0,47.5,44.0,92,85,72,0.00,40.00,6,3,0,0.00
2013-2-4,63.0,51.1,44.0,49.0,45.4,41.0,91,82,47,0.00,40.00,6,4,0,0.00
2013-2-5,52.0,50.0,47.0,48.0,45.4,41.0,91,84,74,0.00,40.00,4,2,0,0.00
2013-2-6,62.0,50.9,45.0,47.0,42.7,38.0,89,74,46,0.00,40.00,10,4,0,0.00
2013-2-7,56.0,49.6,42.0,46.0,42.3,38.0,90,76,54,0.00,40.00,7,4,0,0.00
2013-2-8,51.0,45.8,41.0,43.0,39.1,36.0,85,78,67,0.00,40.00,12,4,0,0.00
2013-2-9,54.0,46.2,41.0,42.0,38.8,35.0,86,76,55,0.00,40.00,7,3,0,0.00
2013-2-10,54.0,46.0,38.0,45.0,40.4,35.0,93,81,49,0.00,40.00,8,3,0,0.00
2013-2-11,51.0,43.2,39.0,44.0,39.5,36.0,90,87,77,0.00,40.00,5,4,0,0.00
2013-2-12,55.0,47.5,40.0,47.0,40.7,34.0,91,77,55,0.00,40.00,6,4,0,0.00
2013-2-13,63.0,50.0,41.0,48.0,42.6,36.0,91,77,37,0.00,40.00,5,3,0,0.00
2013-2-14,65.0,53.6,44.0,49.0,39.6,34.0,76,60,35,0.00,40.00,10,4,0,0.00
2013-2-15,74.0,63.7,50.0,41.0,34.7,29.0,63,35,23,0.00,40.00,10,5,0,0.00
2013-2-16,72.0,58.1,50.0,42.0,32.4,26.0,46,38,23,0.00,40.00,6,3,0,0.00
2013-2-17,57.0,51.8,48.0,48.0,45.8,30.0,90,80,46,0.00,40.00,9,4,0,0.00
2013-2-18,53.0,50.1,48.0,46.0,43.3,41.0,84,77,68,0.00,40.00,7,3,0,0.00
2013-2-19,53.0,47.9,44.0,44.0,39.5,34.0,85,72,60,0.00,40.00,9,4,0,0.00
2013-2-20,55.0,46.1,39.0,45.0,36.7,30.0,83,69,50,0.00,40.00,10,5,0,0.00
2013-2-21,55.0,48.0,39.0,44.0,38.6,34.0,84,70,53,0.00,40.00,8,4,0,0.00
2013-2-22,59.0,50.0,43.0,46.0,38.9,33.0,88,67,40,0.00,40.00,7,4,0,0.00
2013-2-23,56.0,49.5,43.0,47.0,42.0,36.0,87,75,59,0.00,40.00,10,5,0,0.00
2013-2-24,60.0,50.9,44.0,42.0,30.1,24.0,61,45,28,0.00,40.00,9,5,0,0.00
2013-2-25,56.0,48.6,43.0,46.0,39.1,27.0,89,70,49,0.00,40.00,8,4,0,0.00
2013-2-26,64.0,52.3,46.0,43.0,34.1,24.0,90,52,29,0.00,40.00,8,4,0,0.00
2013-2-27,65.0,53.6,43.0,47.0,33.7,23.0,88,50,23,0.00,40.00,6,3,0,0.00
2013-2-28,62.0,54.5,46.0,48.0,41.1,30.0,83,61,41,0.00,40.00,6,3,0,0.00
2013-3-1,79.0,62.2,52.0,47.0,41.0,37.0,67,47,22,0.00,40.00,13,4,0,0.00
2013-3-2,67.0,59.4,51.0,50.0,41.8,37.0,77,52,36,0.00,40.00,7,4,0,0.00
2013-3-4,56.0,51.9,45.0,46.0,45.0,41.0,88,77,67,0.00,40.00,8,4,0,0.00
2013-3-5,57.0,50.7,49.0,46.0,41.8,40.0,86,71,57,0.00,40.00,14,3,0,0.00
2013-3-6,59.0,51.0,46.0,49.0,45.3,41.0,86,80,68,0.00,40.00,10,4,0,0.00
2013-3-7,58.0,49.3,45.0,44.0,41.6,37.0,89,74,49,0.00,40.00,9,3,0,0.00
2013-3-8,54.0,47.7,44.0,46.0,42.5,41.0,91,82,67,0.00,40.00,10,4,0,0.00
2013-3-9,56.0,50.3,44.0,47.0,42.3,35.0,82,73,49,0.00,40.00,7,4,0,0.00
2013-3-10,58.0,51.5,43.0,48.0,45.2,37.0,90,79,56,0.00,40.00,8,4,0,0.00
2013-3-11,65.0,51.4,43.0,48.0,43.6,38.0,91,76,40,0.00,40.00,7,4,0,0.00
2013-3-12,59.0,51.9,45.0,49.0,45.9,40.0,91,80,66,0.00,40.00,9,4,0,0.00
2013-3-13,60.0,49.2,42.0,49.0,45.5,40.0,93,87,64,0.00,40.00,8,4,0,0.00
2013-3-14,54.0,48.9,45.0,49.0,46.4,43.0,93,91,80,0.00,40.00,6,4,0,0.00
2013-3-15,61.0,54.4,48.0,49.0,47.1,45.0,90,77,54,0.00,40.00,7,4,0,0.00
2013-3-16,59.0,51.5,47.0,49.0,47.8,45.0,93,87,68,0.00,40.00,8,4,0,0.00
2013-3-17,58.0,52.2,47.0,48.0,45.5,40.0,89,78,59,0.00,40.00,9,4,0,0.00
2013-3-18,59.0,51.9,44.0,48.0,45.8,41.0,91,80,59,0.00,40.00,9,4,0,0.00
2013-3-19,66.0,54.5,45.0,49.0,45.9,41.0,88,74,41,0.00,40.00,7,4,0,0.00
2013-4-1,62.0,56.6,53.0,55.0,52.0,50.0,92,85,66,0.00,40.00,6,2,0,0.00
2013-4-2,59.0,53.0,47.0,51.0,48.8,44.0,92,85,66,0.00,40.00,7,4,0,0.00
2013-4-3,65.0,53.3,48.0,51.0,49.1,46.0,93,86,56,0.00,40.00,9,3,0,0.00
2013-4-4,66.0,57.1,49.0,53.0,50.9,46.0,93,80,57,0.00,40.00,6,3,0,0.00
2013-4-5,60.0,55.5,52.0,53.0,51.0,50.0,93,84,72,0.00,40.00,8,4,0,0.00
2013-4-6,60.0,55.4,47.0,52.0,49.9,45.0,91,82,65,0.00,40.00,8,5,0,0.00
2013-4-7,59.0,55.4,50.0,51.0,49.4,45.0,92,80,64,0.00,40.00,8,5,0,0.00
2013-4-8,56.0,52.3,49.0,48.0,44.8,42.0,89,76,61,0.00,40.00,12,6,0,0.00
2013-4-9,62.0,54.3,46.0,46.0,43.1,35.0,89,67,37,0.00,40.00,13,5,0,0.00
2013-4-10,72.0,58.4,47.0,49.0,42.3,31.0,83,57,22,0.00,40.00,7,4,0,0.00
2013-4-11,56.0,51.6,48.0,47.0,45.8,42.0,92,80,69,0.00,40.00,11,5,0,0.00
2013-4-12,54.0,50.5,46.0,47.0,46.1,43.0,91,84,75,0.00,40.00,7,5,0,0.00
2013-4-13,55.0,50.2,44.0,48.0,45.0,41.0,92,82,72,0.00,40.00,12,5,0,0.00
2013-4-14,56.0,50.3,43.0,46.0,43.5,40.0,91,77,65,0.00,40.00,6,4,0,0.00
2013-4-15,50.0,49.1,48.0,46.0,45.6,45.0,88,88,86,0.00,40.00,5,2,0,0.00
2013-4-16,56.0,50.3,38.0,43.0,39.9,32.0,82,67,45,0.00,40.00,13,5,0,0.00
2013-4-17,59.0,53.6,42.0,44.0,40.7,30.0,89,62,33,0.00,40.00,10,6,0,0.00
2013-4-18,65.0,56.6,49.0,45.0,37.6,27.0,85,52,24,0.00,40.00,7,4,0,0.00
2013-4-19,65.0,53.1,45.0,47.0,42.2,35.0,87,68,38,0.00,40.00,6,3,0,0.00
2013-4-20,67.0,54.0,47.0,48.0,45.7,43.0,90,74,44,0.00,40.00,8,4,0,0.00
2013-4-21,69.0,56.2,47.0,50.0,46.4,42.0,91,71,40,0.00,40.00,6,3,0,0.00
2013-4-22,64.0,54.8,46.0,51.0,48.0,41.0,88,78,62,0.00,40.00,9,4,0,0.00
2013-4-23,60.0,54.7,50.0,50.0,48.9,47.0,91,81,66,0.00,40.00,9,4,0,0.00
2013-4-24,56.0,53.6,51.0,52.0,50.2,48.0,92,87,78,0.00,40.00,5,2,0,0.00
2013-4-25,63.0,57.4,51.0,50.0,47.8,46.0,84,71,54,0.00,40.00,9,4,0,0.00
2013-4-26,58.0,53.5,47.0,50.0,48.2,45.0,91,82,71,0.00,40.00,8,4,0,0.00
2013-4-27,54.0,51.3,49.0,49.0,47.7,47.0,91,88,83,0.00,40.00,7,4,0,0.00
2013-4-28,54.0,50.8,48.0,48.0,47.5,46.0,93,88,78,0.00,40.00,6,3,0,0.00
2013-4-29,64.0,52.2,45.0,51.0,47.5,43.0,93,84,61,0.00,40.00,8,3,0,0.00
2013-4-30,58.0,54.3,51.0,51.0,49.4,47.0,92,83,74,0.00,40.00,6,2,0,0.00
2013-5-1,64.0,58.0,50.0,51.0,49.6,47.0,90,74,61,0.00,40.00,9,4,0,0.00
2013-5-2,69.0,59.7,49.0,52.0,49.3,40.0,89,69,41,0.00,40.00,10,4,0,0.00
2013-5-3,83.0,64.9,51.0,50.0,43.2,35.0,78,48,21,0.00,40.00,7,4,0,0.00
2013-5-4,61.0,55.2,51.0,50.0,48.9,47.0,91,80,66,0.00,40.00,9,4,0,0.00
2013-5-5,54.0,54.0,54.0,50.0,49.6,49.0,85,84,81,0.00,40.00,3,2,0,0.00
2013-5-6,65.0,61.7,58.0,53.0,50.8,49.0,77,67,56,0.00,40.00,8,4,0,0.00
2013-5-7,66.0,60.1,53.0,54.0,51.2,49.0,88,73,55,0.00,40.00,8,3,0,0.00
2013-5-8,59.0,56.2,52.0,52.0,50.4,49.0,90,80,73,0.00,40.00,12,5,0,0.00
2013-5-9,60.0,55.8,53.0,51.0,49.9,49.0,88,80,69,0.00,40.00,11,4,0,0.00
2013-5-10,62.0,54.7,52.0,51.0,49.0,-99.9,91,84,67,0.00,40.00,7,4,0,0.00
2013-5-11,64.0,54.4,50.0,52.0,48.9,-99.9,92,85,62,0.00,40.00,6,3,0,0.00
2013-5-12,70.0,57.5,51.0,52.0,47.5,-99.9,93,77,42,0.00,40.00,8,4,0,0.00
2013-5-13,57.0,53.7,51.0,51.0,50.6,49.0,92,88,79,0.00,40.00,8,4,0,0.00
2013-5-14,59.0,54.7,52.0,51.0,49.8,49.0,92,83,70,0.00,40.00,10,5,0,0.00
2013-5-15,60.0,54.2,48.0,50.0,48.6,45.0,90,81,66,0.00,40.00,9,4,0,0.00
2013-5-16,61.0,47.8,48.0,52.0,22.6,-99.9,91,84,68,0.00,40.00,8,4,0,0.00
2013-5-17,59.0,54.5,49.0,50.0,42.6,-99.9,91,78,68,0.00,40.00,9,5,0,0.00
2013-5-18,59.0,54.4,49.0,49.0,47.5,46.0,90,77,67,0.00,40.00,9,5,0,0.00
2013-5-19,52.0,50.9,49.0,49.0,47.9,46.0,90,89,88,0.00,40.00,8,5,0,0.00
2013-5-20,68.0,59.5,53.0,49.0,47.8,43.0,83,66,40,0.00,40.00,9,5,0,0.00
2013-5-21,61.0,54.7,50.0,49.0,47.1,45.0,90,76,62,0.00,40.00,12,6,0,0.00
2013-5-22,57.0,51.8,43.0,45.0,42.8,39.0,88,71,56,0.00,40.00,13,5,0,0.00
2013-5-23,58.0,51.8,43.0,45.0,42.5,37.0,87,71,54,0.00,40.00,8,4,0,0.00
2013-5-24,57.0,52.4,44.0,47.0,45.1,40.0,89,76,67,0.00,40.00,9,5,0,0.00
2013-5-25,58.0,51.8,44.0,47.0,44.8,40.0,91,77,64,0.00,40.00,9,6,0,0.00
2013-5-26,60.0,53.6,45.0,51.0,47.9,42.0,91,81,68,0.00,40.00,9,4,0,0.00
2013-5-27,56.0,51.9,48.0,50.0,48.6,46.0,93,88,79,0.00,40.00,6,4,0,0.00
2013-5-28,62.0,55.9,52.0,53.0,51.2,48.0,93,85,72,0.00,40.00,11,5,0,0.00
2013-5-29,65.0,55.2,50.0,52.0,49.2,48.0,91,80,58,0.00,40.00,11,6,0,0.00
2013-5-30,58.0,53.5,50.0,48.0,46.8,46.0,90,78,65,0.00,40.00,8,5,0,0.00
2013-5-31,62.0,54.1,48.0,48.0,46.3,45.0,89,75,54,0.00,40.00,10,4,0,0.00
2013-6-1,63.0,55.7,49.0,49.0,47.3,45.0,89,74,55,0.00,40.00,9,4,0,0.00
2013-6-2,72.0,56.9,49.0,53.0,49.1,45.0,91,76,51,0.00,40.00,12,4,0,0.00
2013-6-3,62.0,55.5,52.0,52.0,50.2,48.0,92,83,62,0.00,40.00,6,3,0,0.00
2013-6-4,62.0,58.0,53.0,53.0,51.6,49.0,89,79,69,0.00,40.00,8,3,0,0.00
2013-6-5,60.0,55.9,51.0,51.0,49.9,47.0,90,80,69,0.00,40.00,9,4,0,0.00
2013-6-6,60.0,55.2,53.0,51.0,50.2,50.0,90,83,70,0.00,40.00,5,3,0,0.00
2013-6-7,59.0,54.5,52.0,52.0,50.6,50.0,92,86,73,0.00,40.00,5,2,0,0.00
2013-6-8,65.0,57.7,53.0,55.0,52.5,51.0,92,83,65,0.00,40.00,10,4,0,0.00
2013-6-9,64.0,58.8,57.0,56.0,53.8,51.0,92,84,73,0.00,40.00,6,2,0,0.00
2013-6-10,68.0,61.6,57.0,54.0,52.5,50.0,81,72,57,0.00,40.00,12,3,0,0.00
2013-6-11,62.0,57.8,55.0,54.0,52.4,51.0,90,82,70,0.00,40.00,6,4,0,0.00
2013-6-12,63.0,57.1,52.0,54.0,51.5,48.0,93,82,68,0.00,40.00,7,4,0,0.00
2013-6-13,60.0,55.5,48.0,50.0,44.0,-99.9,92,78,67,0.00,40.00,9,5,0,0.00
2013-6-14,69.0,56.9,48.0,51.0,49.7,46.0,92,78,52,0.00,40.00,7,4,0,0.00
2013-6-15,58.0,54.6,51.0,51.0,49.0,47.0,89,81,69,0.00,40.00,6,4,0,0.00
2013-6-16,60.0,57.1,50.0,51.0,49.5,47.0,89,75,68,0.00,40.00,11,5,0,0.00
2013-6-17,59.0,55.0,52.0,52.0,50.2,47.0,91,84,75,0.00,40.00,13,6,0,0.00
2013-6-18,60.0,55.9,51.0,51.0,49.7,48.0,93,79,67,0.00,40.00,13,6,0,0.00
2013-6-19,62.0,56.2,49.0,49.0,46.2,41.0,87,69,53,0.00,40.00,11,6,0,0.00
2013-6-20,62.0,53.0,49.0,48.0,45.5,43.0,86,76,49,0.00,40.00,7,4,0,0.00
2013-6-22,59.0,56.7,52.0,50.0,49.2,48.0,90,75,67,0.00,40.00,9,5,0,0.00
2013-6-23,60.0,55.0,49.0,55.0,51.4,46.0,92,88,71,0.00,40.00,7,5,0,0.00
2013-6-24,64.0,59.2,56.0,60.0,56.3,55.0,93,90,78,0.00,40.00,7,3,0,0.00
2013-6-25,66.0,61.3,58.0,58.0,56.4,55.0,92,84,67,0.00,40.00,6,3,0,0.00
2013-6-26,68.0,62.7,57.0,58.0,56.8,55.0,93,81,69,0.00,40.00,12,4,0,0.00
2013-6-27,67.0,60.5,55.0,56.0,54.0,53.0,91,79,63,0.00,40.00,10,4,0,0.00
2013-6-28,65.0,59.5,54.0,53.0,52.2,51.0,90,77,64,0.00,40.00,6,3,0,0.00
2013-6-29,71.0,62.6,54.0,54.0,52.0,51.0,89,69,49,0.00,40.00,8,4,0,0.00
2013-6-30,64.0,59.7,55.0,53.0,51.6,50.0,87,75,64,0.00,40.00,10,5,0,0.00
2013-7-1,71.0,62.1,54.0,60.0,54.6,50.0,86,76,59,0.00,40.00,9,4,0,0.00
2013-7-2,77.0,63.1,56.0,57.0,54.5,52.0,90,74,50,0.00,40.00,8,3,0,0.00
2013-7-3,63.0,57.3,53.0,55.0,52.8,50.0,93,86,71,0.00,40.00,9,4,0,0.00
2013-7-4,65.0,58.8,53.0,56.0,54.1,51.0,93,84,71,0.00,40.00,9,3,0,0.00
2013-7-5,64.0,58.2,55.0,54.0,53.3,52.0,93,84,68,0.00,40.00,11,4,0,0.00
2013-7-6,62.0,58.0,55.0,53.0,51.8,51.0,87,79,68,0.00,40.00,7,4,0,0.00
2013-7-7,62.0,58.2,54.0,53.0,51.8,51.0,88,79,66,0.00,40.00,6,3,0,0.00
2013-7-8,62.0,58.4,55.0,53.0,52.3,52.0,89,80,68,0.00,40.00,8,4,0,0.00
2013-7-9,60.0,55.0,53.0,53.0,52.1,51.0,93,90,78,0.00,40.00,9,3,0,0.00
2013-7-12,59.0,56.1,53.0,53.0,52.2,51.0,92,86,77,0.00,40.00,6,3,0,0.00
2013-7-13,60.0,55.6,52.0,52.0,51.6,50.0,93,87,72,0.00,40.00,9,3,0,0.00
2013-7-14,59.0,55.2,52.0,52.0,51.4,50.0,93,87,75,0.00,40.00,8,4,0,0.00
2013-7-15,62.0,56.9,52.0,52.0,50.7,49.0,91,80,67,0.00,40.00,6,4,0,0.00
2013-7-16,63.0,59.8,54.0,53.0,51.4,50.0,86,73,63,0.00,40.00,10,5,0,0.00
2013-7-17,62.0,59.2,55.0,53.0,52.7,52.0,89,78,70,0.00,40.00,9,5,0,0.00
2013-7-18,59.0,55.2,53.0,52.0,51.5,51.0,92,87,76,0.00,40.00,7,4,0,0.00
2013-7-19,58.0,54.1,52.0,52.0,50.9,50.0,93,89,78,0.00,40.00,8,4,0,0.00
2013-7-20,59.0,54.8,52.0,53.0,51.0,50.0,93,87,74,0.00,40.00,10,3,0,0.00
2013-7-21,61.0,56.0,52.0,54.0,51.7,50.0,93,86,73,0.00,40.00,9,3,0,0.00
2013-7-22,68.0,61.6,56.0,57.0,56.2,54.0,91,82,66,0.00,40.00,8,3,0,0.00
2013-7-23,66.0,59.5,58.0,57.0,55.9,55.0,93,88,69,0.00,40.00,8,3,0,0.00
2013-7-24,61.0,58.0,54.0,55.0,53.9,52.0,93,85,73,0.00,40.00,6,4,0,0.00
2013-7-25,61.0,57.4,55.0,54.0,53.5,52.0,93,86,72,0.00,40.00,6,3,0,0.00
2013-7-26,60.0,56.3,54.0,54.0,53.2,52.0,93,89,80,0.00,40.00,6,3,0,0.00
2013-7-27,61.0,56.9,54.0,54.0,53.2,52.0,93,87,76,0.00,40.00,6,3,0,0.00
2013-7-28,62.0,57.7,54.0,54.0,53.1,52.0,92,84,70,0.00,40.00,8,3,0,0.00
2013-7-29,64.0,60.6,56.0,54.0,53.4,52.0,88,77,69,0.00,40.00,10,4,0,0.00
2013-7-30,64.0,59.8,55.0,55.0,53.4,51.0,90,79,70,0.00,40.00,8,4,0,0.00
2013-7-31,61.0,59.4,55.0,53.0,52.5,52.0,89,78,70,0.00,40.00,5,3,0,0.00
2013-8-1,63.0,58.9,52.0,53.0,49.0,-99.9,91,78,67,0.00,40.00,9,5,0,0.00
2013-8-5,58.0,55.9,53.0,53.0,51.8,50.0,92,86,79,0.00,40.00,6,4,0,0.00
2013-8-6,60.0,56.4,54.0,52.0,51.8,51.0,91,84,71,0.00,40.00,6,3,0,0.00
2013-8-7,63.0,59.5,54.0,54.0,53.2,52.0,92,79,70,0.00,40.00,8,5,0,0.00
2013-8-8,62.0,60.1,56.0,54.0,53.1,52.0,88,77,72,0.00,40.00,6,4,0,0.00
2013-8-9,62.0,59.7,56.0,54.0,52.9,51.0,88,78,71,0.00,40.00,9,4,0,0.00
2013-8-10,60.0,57.8,56.0,55.0,53.8,53.0,92,86,78,0.00,40.00,7,4,0,0.00
2013-8-11,59.0,56.2,54.0,55.0,53.2,53.0,93,90,81,0.00,40.00,9,5,0,0.00
2013-8-12,59.0,56.0,53.0,54.0,53.1,52.0,93,89,82,0.00,40.00,8,4,0,0.00
2013-8-13,60.0,57.6,54.0,54.0,6.8,-99.9,89,83,77,0.00,40.00,7,4,0,0.00
2013-8-14,63.0,56.6,50.0,54.0,6.8,-99.9,93,83,68,0.00,40.00,8,4,0,0.00
2013-8-15,76.0,53.5,53.0,55.0,26.9,-99.9,90,60,45,0.00,40.00,8,4,0,0.00
2013-8-16,62.0,54.5,49.0,55.0,47.8,-99.9,92,85,73,0.00,40.00,9,3,0,0.00
2013-8-17,62.0,56.5,54.0,56.0,47.7,-99.9,93,88,75,0.00,40.00,11,4,0,0.00
2013-8-18,60.0,56.0,52.0,55.0,53.3,50.0,94,90,82,0.00,40.00,9,3,0,0.00
2013-8-19,69.0,55.3,55.0,56.0,44.7,-99.9,93,83,60,0.00,40.00,8,3,0,0.00
2013-8-20,63.0,56.7,54.0,55.0,51.2,-99.9,93,86,73,0.00,40.00,6,3,0,0.00
2013-8-21,66.0,60.2,52.0,55.0,52.6,49.0,90,76,62,0.00,40.00,8,4,0,0.00
2013-8-22,68.0,62.5,54.0,55.0,53.0,50.0,90,71,59,0.00,40.00,6,4,0,0.00
2013-8-23,64.0,59.9,56.0,55.0,54.2,53.0,91,81,69,0.00,40.00,11,5,0,0.00
2013-8-24,68.0,58.2,54.0,56.0,51.9,-99.9,93,83,63,0.00,40.00,9,5,0,0.00
2013-8-25,64.0,59.0,53.0,57.0,54.8,51.0,93,86,70,0.00,40.00,11,4,0,0.00
2013-8-26,62.0,58.7,56.0,57.0,55.4,54.0,94,89,78,0.00,40.00,7,4,0,0.00
2013-8-27,61.0,55.0,52.0,56.0,52.2,50.0,93,90,77,0.00,40.00,6,2,0,0.00
2013-8-28,63.0,59.1,56.0,57.0,54.9,52.0,93,86,72,0.00,40.00,9,5,0,0.00
2013-8-29,66.0,59.2,55.0,57.0,40.1,-99.9,94,88,73,0.00,40.00,8,5,0,0.00
2013-8-30,73.0,62.4,55.0,58.0,54.8,53.0,94,77,53,0.00,40.00,8,4,0,0.00
2013-8-31,73.0,63.0,57.0,57.0,52.7,-99.9,88,72,54,0.00,40.00,4,2,0,0.00
2013-9-1,72.0,64.8,58.0,58.0,55.7,54.0,86,72,55,0.00,40.00,8,3,0,0.00
2013-9-2,73.0,64.0,59.0,59.0,57.5,56.0,91,80,61,0.00,40.00,8,4,0,0.00
2013-9-3,68.0,62.3,58.0,59.0,55.3,52.0,92,78,58,0.00,40.00,11,4,0,0.00
2013-9-4,66.0,60.8,56.0,56.0,55.2,54.0,91,81,67,0.00,40.00,11,5,0,0.00
2013-9-5,66.0,60.3,55.0,55.0,53.9,51.0,91,79,64,0.00,40.00,9,4,0,0.00
2013-9-6,66.0,60.5,55.0,54.0,52.4,51.0,88,74,60,0.00,40.00,8,4,0,0.00
2013-9-7,63.0,56.1,51.0,56.0,50.9,-99.9,92,85,75,0.00,40.00,8,3,0,0.00
2013-9-8,59.0,55.7,53.0,55.0,53.0,51.0,93,90,80,0.00,40.00,7,2,0,0.00
2013-9-9,61.0,56.5,54.0,55.0,53.2,52.0,94,89,73,0.00,40.00,9,3,0,0.00
2013-9-10,67.0,58.1,54.0,57.0,53.8,52.0,93,85,68,0.00,40.00,9,2,0,0.00
2013-9-11,65.0,60.6,55.0,56.0,54.7,52.0,91,81,68,0.00,40.00,6,3,0,0.00
2013-9-12,65.0,61.7,56.0,57.0,56.3,53.0,90,82,75,0.00,40.00,7,4,0,0.00
2013-9-13,63.0,58.7,55.0,57.0,55.1,53.0,93,87,76,0.00,40.00,9,4,0,0.00
2013-9-14,62.0,56.7,55.0,55.0,51.5,-99.9,93,86,74,0.00,40.00,10,5,0,0.00
2013-9-15,64.0,58.4,53.0,55.0,53.0,50.0,92,82,67,0.00,40.00,13,5,0,0.00
2013-9-16,63.0,56.8,52.0,56.0,53.0,49.0,93,87,75,0.00,40.00,7,4,0,0.00
2013-9-17,65.0,58.1,52.0,55.0,52.2,50.0,93,81,65,0.00,40.00,9,4,0,0.00
2013-9-18,57.0,53.8,51.0,52.0,50.2,48.0,90,87,80,0.00,40.00,7,5,0,0.00
2013-9-19,71.0,61.0,52.0,53.0,49.5,44.0,88,67,41,0.00,40.00,7,4,0,0.00
2013-9-20,66.0,58.2,51.0,56.0,52.2,49.0,92,81,63,0.00,40.00,8,4,0,0.00
2013-9-21,63.0,57.4,58.0,59.0,50.9,-99.9,93,88,87,0.00,40.00,5,2,0,0.00
2013-9-22,64.0,59.8,55.0,55.0,51.8,49.0,93,75,61,0.00,40.00,8,4,0,0.00
2013-9-23,73.0,64.8,58.0,51.0,48.1,45.0,70,55,37,0.00,40.00,11,4,0,0.00
2013-9-24,67.0,61.4,56.0,53.0,52.1,50.0,84,71,59,0.00,40.00,8,5,0,0.00
2013-9-25,62.0,57.4,52.0,51.0,48.7,45.0,85,72,55,0.00,40.00,13,5,0,0.00
2013-9-26,62.0,54.9,47.0,49.0,46.4,43.0,88,74,55,0.00,40.00,6,4,0,0.00
2013-9-27,71.0,57.7,47.0,48.0,42.2,36.0,81,58,29,0.00,40.00,6,4,0,0.00
2013-9-28,74.0,63.7,55.0,43.0,34.5,-99.9,59,37,28,0.00,40.00,7,4,0,0.00
2013-9-29,67.0,60.7,52.0,54.0,49.6,41.0,87,68,43,0.00,40.00,9,4,0,0.00
2013-9-30,68.0,61.5,53.0,56.0,53.1,47.0,91,74,54,0.00,40.00,8,4,0,0.00
2013-10-1,54.0,54.0,54.0,51.0,50.7,50.0,88,87,86,0.00,40.00,5,4,0,0.00
2013-10-2,65.0,55.3,49.0,52.0,49.4,46.0,92,81,60,0.00,40.00,13,4,0,0.00
2013-10-3,64.0,56.0,47.0,48.0,46.1,36.0,88,70,36,0.00,40.00,7,3,0,0.00
2013-10-4,76.0,63.3,56.0,53.0,37.3,31.0,66,39,29,0.00,40.00,9,4,0,0.00
2013-10-5,77.0,65.6,60.0,31.0,29.1,26.0,28,25,18,0.00,40.00,5,3,0,0.00
2013-10-6,81.0,64.3,58.0,29.0,26.3,20.0,29,24,10,0.00,40.00,8,4,0,0.00
2013-10-7,60.0,56.2,52.0,53.0,47.2,24.0,89,74,29,0.00,40.00,6,3,0,0.00
2013-10-8,59.0,54.9,47.0,49.0,47.9,44.0,91,77,67,0.00,40.00,7,3,0,0.00
2013-10-9,58.0,54.0,49.0,50.0,47.0,43.0,86,77,63,0.00,40.00,11,5,0,0.01
2013-10-10,62.0,55.0,47.0,50.0,46.9,42.0,88,74,63,0.00,40.00,8,4,0,0.00
2013-10-11,59.0,55.2,47.0,50.0,48.5,44.0,88,77,68,0.00,40.00,8,3,0,0.00
2013-10-12,57.0,53.8,49.0,50.0,45.3,-99.9,89,78,73,0.00,40.00,6,4,0,0.00
2013-10-13,58.0,54.0,48.0,51.0,48.8,46.0,90,82,69,0.00,40.00,5,3,0,0.00
2013-10-21,57.0,53.9,49.0,50.0,49.2,47.0,92,84,74,0.00,40.00,4,2,0,0.00
2013-10-22,58.0,54.1,51.0,51.0,50.1,49.0,93,86,74,0.00,40.00,4,2,0,0.00
2013-10-23,56.0,54.5,53.0,51.0,49.9,49.0,89,84,80,0.00,40.00,5,3,0,0.00
2013-10-24,58.0,55.8,54.0,51.0,49.9,49.0,87,80,75,0.00,40.00,7,3,0,0.00
2013-10-25,60.0,57.3,53.0,53.0,51.8,50.0,90,81,74,0.00,40.00,7,4,0,0.00
2013-10-26,60.0,54.8,48.0,54.0,48.0,-99.9,91,82,76,0.00,40.00,7,4,0,0.00
2013-10-27,55.0,53.6,51.0,51.0,49.5,49.0,93,85,77,0.00,40.00,6,3,0,0.00
2013-10-28,57.0,52.4,51.0,52.0,46.8,-99.9,91,87,77,0.00,40.00,7,3,0,0.04
2013-10-29,61.0,53.9,48.0,52.0,49.3,46.0,91,84,69,0.00,40.00,5,3,0,0.00
2013-10-30,62.0,56.0,47.0,52.0,47.9,43.0,88,74,63,0.00,40.00,11,5,0,0.00